Terminal Aerodrome Forecast
Issued by NWS

Home | Current Version | Previous Version | Text Only | Print | Product List | Glossary On
Versions: 1 2 3 4 5 6 7 8 9 10 11 12 13 14 15 16 17 18 19 20
000
FTUS41 KALY 260524
TAFPSF
TAF
KPSF 260524Z 2606/2706 VRB03KT 6SM BR SCT008 OVC035
      TEMPO 2607/2609 2SM +SHRA BR BKN008 OVC020
     FM260900 21003KT 2SM BR VCSH BKN005 OVC009
     FM261300 25004KT 4SM BR SCT008 BKN015 OVC025
     FM261600 31010G15KT P6SM SCT025 BKN040
     FM262300 30007KT P6SM SKC=

USA.gov is the U.S. government's official web portal to all federal, state and local government web resources and services.